sensor_id;sensor_type;location;lat;lon;timestamp;P1;durP1;ratioP1;P2;durP2;ratioP2
55762;SDS011;42162;51.958;5.426;2024-01-16T00:01:10;6.78;;;1.70;;
55762;SDS011;42162;51.958;5.426;2024-01-16T00:03:38;6.20;;;1.70;;
55762;SDS011;42162;51.958;5.426;2024-01-16T00:06:08;4.03;;;1.33;;
55762;SDS011;42162;51.958;5.426;2024-01-16T00:08:35;4.93;;;1.52;;
55762;SDS011;42162;51.958;5.426;2024-01-16T00:11:02;12.65;;;2.50;;
55762;SDS011;42162;51.958;5.426;2024-01-16T00:13:32;10.95;;;2.08;;
55762;SDS011;42162;51.958;5.426;2024-01-16T00:16:01;8.07;;;1.92;;
55762;SDS011;42162;51.958;5.426;2024-01-16T00:18:29;6.50;;;2.50;;
55762;SDS011;42162;51.958;5.426;2024-01-16T00:20:57;6.45;;;1.92;;
55762;SDS011;42162;51.958;5.426;2024-01-16T00:23:24;5.65;;;1.50;;
55762;SDS011;42162;51.958;5.426;2024-01-16T00:25:51;4.18;;;1.65;;
55762;SDS011;42162;51.958;5.426;2024-01-16T00:28:19;8.50;;;1.95;;
55762;SDS011;42162;51.958;5.426;2024-01-16T00:30:46;5.82;;;2.53;;
55762;SDS011;42162;51.958;5.426;2024-01-16T00:33:14;4.80;;;1.92;;
55762;SDS011;42162;51.958;5.426;2024-01-16T00:35:41;4.95;;;1.98;;
55762;SDS011;42162;51.958;5.426;2024-01-16T00:38:08;8.52;;;2.17;;
55762;SDS011;42162;51.958;5.426;2024-01-16T00:40:36;4.55;;;1.70;;
55762;SDS011;42162;51.958;5.426;2024-01-16T00:43:03;7.72;;;1.90;;
55762;SDS011;42162;51.958;5.426;2024-01-16T00:45:30;5.35;;;1.83;;
55762;SDS011;42162;51.958;5.426;2024-01-16T00:47:57;6.35;;;1.45;;
55762;SDS011;42162;51.958;5.426;2024-01-16T00:50:26;5.05;;;1.50;;
55762;SDS011;42162;51.958;5.426;2024-01-16T00:52:53;1.92;;;1.45;;
55762;SDS011;42162;51.958;5.426;2024-01-16T00:55:20;3.25;;;1.63;;
55762;SDS011;42162;51.958;5.426;2024-01-16T00:57:47;6.93;;;2.03;;
55762;SDS011;42162;51.958;5.426;2024-01-16T01:00:15;5.85;;;1.83;;
55762;SDS011;42162;51.958;5.426;2024-01-16T01:02:42;5.38;;;1.67;;
55762;SDS011;42162;51.958;5.426;2024-01-16T01:05:10;2.85;;;1.40;;
55762;SDS011;42162;51.958;5.426;2024-01-16T01:07:38;5.55;;;2.20;;
55762;SDS011;42162;51.958;5.426;2024-01-16T01:10:05;4.82;;;1.98;;
55762;SDS011;42162;51.958;5.426;2024-01-16T01:12:32;4.57;;;1.50;;
55762;SDS011;42162;51.958;5.426;2024-01-16T01:15:02;4.63;;;1.90;;
55762;SDS011;42162;51.958;5.426;2024-01-16T01:17:30;9.85;;;1.73;;
55762;SDS011;42162;51.958;5.426;2024-01-16T01:19:57;4.38;;;1.70;;
55762;SDS011;42162;51.958;5.426;2024-01-16T01:22:24;4.15;;;1.63;;
55762;SDS011;42162;51.958;5.426;2024-01-16T01:24:51;5.68;;;1.80;;
55762;SDS011;42162;51.958;5.426;2024-01-16T01:27:19;9.82;;;2.35;;
55762;SDS011;42162;51.958;5.426;2024-01-16T01:29:48;7.35;;;1.90;;
55762;SDS011;42162;51.958;5.426;2024-01-16T01:32:15;7.45;;;1.80;;
55762;SDS011;42162;51.958;5.426;2024-01-16T01:34:45;6.28;;;2.17;;
55762;SDS011;42162;51.958;5.426;2024-01-16T01:37:12;5.90;;;1.70;;
55762;SDS011;42162;51.958;5.426;2024-01-16T01:39:39;5.78;;;2.00;;
55762;SDS011;42162;51.958;5.426;2024-01-16T01:42:07;3.83;;;1.95;;
55762;SDS011;42162;51.958;5.426;2024-01-16T01:44:34;10.50;;;2.55;;
55762;SDS011;42162;51.958;5.426;2024-01-16T01:47:01;9.82;;;2.40;;
55762;SDS011;42162;51.958;5.426;2024-01-16T01:49:30;7.82;;;2.92;;
55762;SDS011;42162;51.958;5.426;2024-01-16T01:51:57;6.63;;;2.20;;
55762;SDS011;42162;51.958;5.426;2024-01-16T01:54:25;9.55;;;2.97;;
55762;SDS011;42162;51.958;5.426;2024-01-16T01:56:54;5.07;;;1.83;;
55762;SDS011;42162;51.958;5.426;2024-01-16T01:59:22;5.15;;;2.65;;
55762;SDS011;42162;51.958;5.426;2024-01-16T02:01:50;7.85;;;3.35;;
55762;SDS011;42162;51.958;5.426;2024-01-16T02:04:35;5.72;;;2.92;;
55762;SDS011;42162;51.958;5.426;2024-01-16T02:07:03;19.55;;;3.17;;
55762;SDS011;42162;51.958;5.426;2024-01-16T02:09:31;10.18;;;3.35;;
55762;SDS011;42162;51.958;5.426;2024-01-16T02:11:58;7.00;;;2.60;;
55762;SDS011;42162;51.958;5.426;2024-01-16T02:14:27;7.38;;;2.47;;
55762;SDS011;42162;51.958;5.426;2024-01-16T02:16:54;11.98;;;3.00;;
55762;SDS011;42162;51.958;5.426;2024-01-16T02:19:24;7.53;;;2.20;;
55762;SDS011;42162;51.958;5.426;2024-01-16T02:21:53;9.45;;;2.95;;
55762;SDS011;42162;51.958;5.426;2024-01-16T02:24:24;6.65;;;2.35;;
55762;SDS011;42162;51.958;5.426;2024-01-16T02:26:52;11.52;;;2.33;;
55762;SDS011;42162;51.958;5.426;2024-01-16T02:29:20;8.52;;;2.75;;
55762;SDS011;42162;51.958;5.426;2024-01-16T02:31:47;9.48;;;2.08;;
55762;SDS011;42162;51.958;5.426;2024-01-16T02:34:14;4.93;;;2.25;;
55762;SDS011;42162;51.958;5.426;2024-01-16T02:36:42;6.15;;;2.42;;
55762;SDS011;42162;51.958;5.426;2024-01-16T02:39:09;7.50;;;2.47;;
55762;SDS011;42162;51.958;5.426;2024-01-16T02:41:36;8.70;;;2.25;;
55762;SDS011;42162;51.958;5.426;2024-01-16T02:44:03;9.60;;;2.90;;
55762;SDS011;42162;51.958;5.426;2024-01-16T02:46:31;11.15;;;2.88;;
55762;SDS011;42162;51.958;5.426;2024-01-16T02:48:59;9.20;;;2.72;;
55762;SDS011;42162;51.958;5.426;2024-01-16T02:51:26;4.65;;;2.42;;
55762;SDS011;42162;51.958;5.426;2024-01-16T02:53:53;11.52;;;2.50;;
55762;SDS011;42162;51.958;5.426;2024-01-16T02:56:20;5.07;;;2.17;;
55762;SDS011;42162;51.958;5.426;2024-01-16T02:58:48;6.75;;;2.35;;
55762;SDS011;42162;51.958;5.426;2024-01-16T03:01:15;11.70;;;2.65;;
55762;SDS011;42162;51.958;5.426;2024-01-16T03:03:42;3.83;;;1.95;;
55762;SDS011;42162;51.958;5.426;2024-01-16T03:06:10;10.77;;;2.55;;
55762;SDS011;42162;51.958;5.426;2024-01-16T03:08:37;3.70;;;1.75;;
55762;SDS011;42162;51.958;5.426;2024-01-16T03:11:04;5.25;;;2.03;;
55762;SDS011;42162;51.958;5.426;2024-01-16T03:13:31;3.83;;;1.70;;
55762;SDS011;42162;51.958;5.426;2024-01-16T03:15:59;7.97;;;1.85;;
55762;SDS011;42162;51.958;5.426;2024-01-16T03:18:26;5.70;;;1.40;;
55762;SDS011;42162;51.958;5.426;2024-01-16T03:20:54;6.22;;;1.88;;
55762;SDS011;42162;51.958;5.426;2024-01-16T03:23:21;5.03;;;1.80;;
55762;SDS011;42162;51.958;5.426;2024-01-16T03:25:48;12.55;;;2.80;;
55762;SDS011;42162;51.958;5.426;2024-01-16T03:28:15;4.82;;;1.45;;
55762;SDS011;42162;51.958;5.426;2024-01-16T03:30:43;6.82;;;1.90;;
55762;SDS011;42162;51.958;5.426;2024-01-16T03:33:10;4.47;;;1.88;;
55762;SDS011;42162;51.958;5.426;2024-01-16T03:35:37;5.75;;;2.25;;
55762;SDS011;42162;51.958;5.426;2024-01-16T03:38:04;4.10;;;1.80;;
55762;SDS011;42162;51.958;5.426;2024-01-16T03:40:32;3.67;;;1.55;;
55762;SDS011;42162;51.958;5.426;2024-01-16T03:43:01;8.85;;;2.17;;
55762;SDS011;42162;51.958;5.426;2024-01-16T03:45:28;8.95;;;1.98;;
55762;SDS011;42162;51.958;5.426;2024-01-16T03:47:58;3.25;;;1.88;;
55762;SDS011;42162;51.958;5.426;2024-01-16T03:50:25;5.30;;;1.83;;
55762;SDS011;42162;51.958;5.426;2024-01-16T03:52:53;3.92;;;1.58;;
55762;SDS011;42162;51.958;5.426;2024-01-16T03:55:22;7.97;;;2.17;;
55762;SDS011;42162;51.958;5.426;2024-01-16T03:57:49;3.85;;;1.48;;
55762;SDS011;42162;51.958;5.426;2024-01-16T04:00:17;2.63;;;1.63;;
55762;SDS011;42162;51.958;5.426;2024-01-16T04:02:50;4.03;;;1.73;;
55762;SDS011;42162;51.958;5.426;2024-01-16T04:05:20;7.53;;;1.60;;
55762;SDS011;42162;51.958;5.426;2024-01-16T04:07:47;4.00;;;1.73;;
55762;SDS011;42162;51.958;5.426;2024-01-16T04:10:14;3.47;;;1.63;;
55762;SDS011;42162;51.958;5.426;2024-01-16T04:12:44;5.18;;;1.52;;
55762;SDS011;42162;51.958;5.426;2024-01-16T04:15:11;3.75;;;1.48;;
55762;SDS011;42162;51.958;5.426;2024-01-16T04:17:38;3.10;;;1.48;;
55762;SDS011;42162;51.958;5.426;2024-01-16T04:20:06;5.28;;;1.52;;
55762;SDS011;42162;51.958;5.426;2024-01-16T04:22:36;5.30;;;1.70;;
55762;SDS011;42162;51.958;5.426;2024-01-16T04:25:03;5.40;;;1.45;;
55762;SDS011;42162;51.958;5.426;2024-01-16T04:27:31;3.50;;;1.60;;
55762;SDS011;42162;51.958;5.426;2024-01-16T04:29:59;3.45;;;1.40;;
55762;SDS011;42162;51.958;5.426;2024-01-16T04:32:26;2.28;;;1.42;;
55762;SDS011;42162;51.958;5.426;2024-01-16T04:34:53;1.88;;;1.23;;
55762;SDS011;42162;51.958;5.426;2024-01-16T04:37:20;1.33;;;1.08;;
55762;SDS011;42162;51.958;5.426;2024-01-16T04:39:48;2.67;;;1.27;;
55762;SDS011;42162;51.958;5.426;2024-01-16T04:42:15;4.95;;;1.48;;
55762;SDS011;42162;51.958;5.426;2024-01-16T04:44:44;4.45;;;1.45;;
55762;SDS011;42162;51.958;5.426;2024-01-16T04:47:11;6.30;;;1.63;;
55762;SDS011;42162;51.958;5.426;2024-01-16T04:49:40;2.58;;;1.65;;
55762;SDS011;42162;51.958;5.426;2024-01-16T04:52:08;3.88;;;1.60;;
55762;SDS011;42162;51.958;5.426;2024-01-16T04:54:35;3.63;;;1.55;;
55762;SDS011;42162;51.958;5.426;2024-01-16T04:57:03;3.15;;;1.63;;
55762;SDS011;42162;51.958;5.426;2024-01-16T04:59:31;5.65;;;1.63;;
55762;SDS011;42162;51.958;5.426;2024-01-16T05:02:00;4.38;;;1.85;;
55762;SDS011;42162;51.958;5.426;2024-01-16T05:04:27;8.13;;;1.35;;
55762;SDS011;42162;51.958;5.426;2024-01-16T05:06:54;5.70;;;2.33;;
55762;SDS011;42162;51.958;5.426;2024-01-16T05:09:22;10.77;;;2.35;;
55762;SDS011;42162;51.958;5.426;2024-01-16T05:11:49;5.47;;;2.13;;
55762;SDS011;42162;51.958;5.426;2024-01-16T05:14:16;7.18;;;1.90;;
55762;SDS011;42162;51.958;5.426;2024-01-16T05:16:43;2.97;;;1.67;;
55762;SDS011;42162;51.958;5.426;2024-01-16T05:19:11;7.18;;;1.65;;
55762;SDS011;42162;51.958;5.426;2024-01-16T05:21:40;13.70;;;2.05;;
55762;SDS011;42162;51.958;5.426;2024-01-16T05:24:08;10.20;;;2.22;;
55762;SDS011;42162;51.958;5.426;2024-01-16T05:26:35;3.35;;;1.77;;
55762;SDS011;42162;51.958;5.426;2024-01-16T05:29:02;8.63;;;1.80;;
55762;SDS011;42162;51.958;5.426;2024-01-16T05:31:29;3.47;;;1.45;;
55762;SDS011;42162;51.958;5.426;2024-01-16T05:33:56;6.68;;;1.70;;
55762;SDS011;42162;51.958;5.426;2024-01-16T05:36:26;5.80;;;2.08;;
55762;SDS011;42162;51.958;5.426;2024-01-16T05:38:53;9.40;;;2.28;;
55762;SDS011;42162;51.958;5.426;2024-01-16T05:41:20;5.20;;;2.00;;
55762;SDS011;42162;51.958;5.426;2024-01-16T05:43:48;5.90;;;1.48;;
55762;SDS011;42162;51.958;5.426;2024-01-16T05:46:15;5.53;;;1.95;;
55762;SDS011;42162;51.958;5.426;2024-01-16T05:48:42;6.57;;;2.00;;
55762;SDS011;42162;51.958;5.426;2024-01-16T05:51:10;3.92;;;1.38;;
55762;SDS011;42162;51.958;5.426;2024-01-16T05:53:37;9.63;;;2.22;;
55762;SDS011;42162;51.958;5.426;2024-01-16T05:56:04;6.13;;;1.77;;
55762;SDS011;42162;51.958;5.426;2024-01-16T05:58:32;9.10;;;2.08;;
55762;SDS011;42162;51.958;5.426;2024-01-16T06:01:05;7.22;;;1.70;;
55762;SDS011;42162;51.958;5.426;2024-01-16T06:03:33;4.97;;;1.45;;
55762;SDS011;42162;51.958;5.426;2024-01-16T06:06:00;8.50;;;2.47;;
55762;SDS011;42162;51.958;5.426;2024-01-16T06:08:27;10.52;;;2.10;;
55762;SDS011;42162;51.958;5.426;2024-01-16T06:10:55;9.82;;;2.00;;
55762;SDS011;42162;51.958;5.426;2024-01-16T06:13:22;4.22;;;1.85;;
55762;SDS011;42162;51.958;5.426;2024-01-16T06:15:49;5.82;;;1.60;;
55762;SDS011;42162;51.958;5.426;2024-01-16T06:18:16;7.07;;;1.77;;
55762;SDS011;42162;51.958;5.426;2024-01-16T06:20:43;9.73;;;2.03;;
55762;SDS011;42162;51.958;5.426;2024-01-16T06:23:11;4.68;;;2.20;;
55762;SDS011;42162;51.958;5.426;2024-01-16T06:25:38;7.07;;;2.33;;
55762;SDS011;42162;51.958;5.426;2024-01-16T06:28:05;6.97;;;2.22;;
55762;SDS011;42162;51.958;5.426;2024-01-16T06:30:34;7.80;;;2.08;;
55762;SDS011;42162;51.958;5.426;2024-01-16T06:33:01;14.85;;;2.45;;
55762;SDS011;42162;51.958;5.426;2024-01-16T06:35:29;6.63;;;2.70;;
55762;SDS011;42162;51.958;5.426;2024-01-16T06:37:56;5.78;;;2.42;;
55762;SDS011;42162;51.958;5.426;2024-01-16T06:40:23;8.23;;;2.90;;
55762;SDS011;42162;51.958;5.426;2024-01-16T06:42:50;8.10;;;2.80;;
55762;SDS011;42162;51.958;5.426;2024-01-16T06:45:17;9.90;;;3.42;;
55762;SDS011;42162;51.958;5.426;2024-01-16T06:47:46;6.70;;;3.17;;
55762;SDS011;42162;51.958;5.426;2024-01-16T06:50:16;6.88;;;2.47;;
55762;SDS011;42162;51.958;5.426;2024-01-16T06:52:44;6.28;;;2.85;;
55762;SDS011;42162;51.958;5.426;2024-01-16T06:55:11;4.72;;;2.50;;
55762;SDS011;42162;51.958;5.426;2024-01-16T06:57:38;5.40;;;3.47;;
55762;SDS011;42162;51.958;5.426;2024-01-16T07:00:05;11.70;;;3.55;;
55762;SDS011;42162;51.958;5.426;2024-01-16T07:02:34;4.63;;;3.15;;
55762;SDS011;42162;51.958;5.426;2024-01-16T07:05:02;9.85;;;4.00;;
55762;SDS011;42162;51.958;5.426;2024-01-16T07:07:30;13.82;;;3.90;;
55762;SDS011;42162;51.958;5.426;2024-01-16T07:09:57;10.70;;;3.58;;
55762;SDS011;42162;51.958;5.426;2024-01-16T07:12:24;6.05;;;4.13;;
55762;SDS011;42162;51.958;5.426;2024-01-16T07:14:51;6.00;;;3.45;;
55762;SDS011;42162;51.958;5.426;2024-01-16T07:17:19;8.70;;;4.63;;
55762;SDS011;42162;51.958;5.426;2024-01-16T07:19:46;6.60;;;3.30;;
55762;SDS011;42162;51.958;5.426;2024-01-16T07:22:13;10.15;;;3.72;;
55762;SDS011;42162;51.958;5.426;2024-01-16T07:24:41;9.32;;;3.70;;
55762;SDS011;42162;51.958;5.426;2024-01-16T07:27:09;9.65;;;4.65;;
55762;SDS011;42162;51.958;5.426;2024-01-16T07:29:36;8.75;;;3.78;;
55762;SDS011;42162;51.958;5.426;2024-01-16T07:32:03;7.03;;;3.88;;
55762;SDS011;42162;51.958;5.426;2024-01-16T07:34:30;12.18;;;3.17;;
55762;SDS011;42162;51.958;5.426;2024-01-16T07:36:58;8.52;;;3.03;;
55762;SDS011;42162;51.958;5.426;2024-01-16T07:39:25;9.98;;;4.07;;
55762;SDS011;42162;51.958;5.426;2024-01-16T07:41:52;9.07;;;3.55;;
55762;SDS011;42162;51.958;5.426;2024-01-16T07:44:19;7.53;;;3.45;;
55762;SDS011;42162;51.958;5.426;2024-01-16T07:46:47;10.40;;;3.70;;
55762;SDS011;42162;51.958;5.426;2024-01-16T07:49:14;11.10;;;4.00;;
55762;SDS011;42162;51.958;5.426;2024-01-16T07:51:41;12.27;;;4.00;;
55762;SDS011;42162;51.958;5.426;2024-01-16T07:54:09;10.70;;;3.30;;
55762;SDS011;42162;51.958;5.426;2024-01-16T07:56:37;10.27;;;3.35;;
55762;SDS011;42162;51.958;5.426;2024-01-16T07:59:04;9.88;;;3.40;;
55762;SDS011;42162;51.958;5.426;2024-01-16T08:01:32;12.27;;;4.13;;
55762;SDS011;42162;51.958;5.426;2024-01-16T08:03:59;7.93;;;3.35;;
55762;SDS011;42162;51.958;5.426;2024-01-16T08:06:26;6.53;;;3.42;;
55762;SDS011;42162;51.958;5.426;2024-01-16T08:08:54;7.60;;;3.38;;
55762;SDS011;42162;51.958;5.426;2024-01-16T08:11:21;10.50;;;3.67;;
55762;SDS011;42162;51.958;5.426;2024-01-16T08:13:49;10.23;;;3.78;;
55762;SDS011;42162;51.958;5.426;2024-01-16T08:16:16;5.55;;;3.35;;
55762;SDS011;42162;51.958;5.426;2024-01-16T08:18:43;10.25;;;3.58;;
55762;SDS011;42162;51.958;5.426;2024-01-16T08:21:10;11.77;;;4.53;;
55762;SDS011;42162;51.958;5.426;2024-01-16T08:23:38;10.63;;;3.92;;
55762;SDS011;42162;51.958;5.426;2024-01-16T08:26:05;7.57;;;3.95;;
55762;SDS011;42162;51.958;5.426;2024-01-16T08:28:32;7.25;;;3.75;;
55762;SDS011;42162;51.958;5.426;2024-01-16T08:31:00;8.45;;;3.53;;
55762;SDS011;42162;51.958;5.426;2024-01-16T08:33:27;7.57;;;3.03;;
55762;SDS011;42162;51.958;5.426;2024-01-16T08:36:08;8.25;;;3.78;;
55762;SDS011;42162;51.958;5.426;2024-01-16T08:38:35;7.38;;;4.25;;
55762;SDS011;42162;51.958;5.426;2024-01-16T08:41:03;11.05;;;3.83;;
55762;SDS011;42162;51.958;5.426;2024-01-16T08:43:33;8.38;;;3.95;;
55762;SDS011;42162;51.958;5.426;2024-01-16T08:46:00;12.13;;;5.10;;
55762;SDS011;42162;51.958;5.426;2024-01-16T08:48:28;12.50;;;3.70;;
55762;SDS011;42162;51.958;5.426;2024-01-16T08:50:55;8.35;;;3.65;;
55762;SDS011;42162;51.958;5.426;2024-01-16T08:53:23;13.50;;;4.57;;
55762;SDS011;42162;51.958;5.426;2024-01-16T08:55:51;5.47;;;3.88;;
55762;SDS011;42162;51.958;5.426;2024-01-16T08:58:18;10.30;;;3.83;;
55762;SDS011;42162;51.958;5.426;2024-01-16T09:00:45;9.25;;;4.20;;
55762;SDS011;42162;51.958;5.426;2024-01-16T09:03:14;8.60;;;3.95;;
55762;SDS011;42162;51.958;5.426;2024-01-16T09:05:41;6.60;;;3.70;;
55762;SDS011;42162;51.958;5.426;2024-01-16T09:08:10;17.67;;;3.90;;
55762;SDS011;42162;51.958;5.426;2024-01-16T09:10:39;6.65;;;3.65;;
55762;SDS011;42162;51.958;5.426;2024-01-16T09:13:06;7.60;;;3.45;;
55762;SDS011;42162;51.958;5.426;2024-01-16T09:15:33;8.25;;;4.32;;
55762;SDS011;42162;51.958;5.426;2024-01-16T09:18:01;10.95;;;3.78;;
55762;SDS011;42162;51.958;5.426;2024-01-16T09:20:28;9.45;;;3.80;;
55762;SDS011;42162;51.958;5.426;2024-01-16T09:22:56;10.23;;;3.75;;
55762;SDS011;42162;51.958;5.426;2024-01-16T09:25:23;12.18;;;3.67;;
55762;SDS011;42162;51.958;5.426;2024-01-16T09:27:54;9.35;;;4.00;;
55762;SDS011;42162;51.958;5.426;2024-01-16T09:30:21;14.93;;;3.88;;
55762;SDS011;42162;51.958;5.426;2024-01-16T09:32:49;14.02;;;4.93;;
55762;SDS011;42162;51.958;5.426;2024-01-16T09:35:17;8.95;;;3.78;;
55762;SDS011;42162;51.958;5.426;2024-01-16T09:37:44;8.05;;;3.08;;
55762;SDS011;42162;51.958;5.426;2024-01-16T09:40:11;7.53;;;3.63;;
55762;SDS011;42162;51.958;5.426;2024-01-16T09:42:40;12.93;;;3.55;;
55762;SDS011;42162;51.958;5.426;2024-01-16T09:45:08;11.63;;;4.03;;
55762;SDS011;42162;51.958;5.426;2024-01-16T09:47:36;15.32;;;4.93;;
55762;SDS011;42162;51.958;5.426;2024-01-16T09:50:05;9.43;;;3.53;;
55762;SDS011;42162;51.958;5.426;2024-01-16T09:52:33;10.98;;;3.47;;
55762;SDS011;42162;51.958;5.426;2024-01-16T09:55:01;9.27;;;4.18;;
55762;SDS011;42162;51.958;5.426;2024-01-16T09:57:28;8.10;;;3.40;;
55762;SDS011;42162;51.958;5.426;2024-01-16T09:59:56;8.70;;;3.70;;
55762;SDS011;42162;51.958;5.426;2024-01-16T10:02:24;7.82;;;3.70;;
55762;SDS011;42162;51.958;5.426;2024-01-16T10:04:52;8.07;;;3.53;;
55762;SDS011;42162;51.958;5.426;2024-01-16T10:07:19;8.35;;;3.15;;
55762;SDS011;42162;51.958;5.426;2024-01-16T10:09:57;7.53;;;4.40;;
55762;SDS011;42162;51.958;5.426;2024-01-16T10:12:25;9.88;;;3.50;;
55762;SDS011;42162;51.958;5.426;2024-01-16T10:14:53;10.43;;;3.33;;
55762;SDS011;42162;51.958;5.426;2024-01-16T10:17:21;11.93;;;3.33;;
55762;SDS011;42162;51.958;5.426;2024-01-16T10:19:49;10.13;;;3.88;;
55762;SDS011;42162;51.958;5.426;2024-01-16T10:22:21;8.38;;;3.72;;
55762;SDS011;42162;51.958;5.426;2024-01-16T10:25:10;6.60;;;3.40;;
55762;SDS011;42162;51.958;5.426;2024-01-16T10:27:44;7.63;;;3.50;;
55762;SDS011;42162;51.958;5.426;2024-01-16T10:30:11;7.45;;;3.50;;
55762;SDS011;42162;51.958;5.426;2024-01-16T10:32:39;5.88;;;3.15;;
55762;SDS011;42162;51.958;5.426;2024-01-16T10:35:09;9.00;;;3.58;;
55762;SDS011;42162;51.958;5.426;2024-01-16T10:40:19;9.30;;;3.47;;
55762;SDS011;42162;51.958;5.426;2024-01-16T10:45:35;7.63;;;3.08;;
55762;SDS011;42162;51.958;5.426;2024-01-16T10:48:06;10.40;;;3.60;;
55762;SDS011;42162;51.958;5.426;2024-01-16T10:50:36;10.73;;;3.50;;
55762;SDS011;42162;51.958;5.426;2024-01-16T10:53:06;8.30;;;3.17;;
55762;SDS011;42162;51.958;5.426;2024-01-16T10:55:43;9.77;;;3.80;;
55762;SDS011;42162;51.958;5.426;2024-01-16T10:58:15;7.93;;;2.80;;
55762;SDS011;42162;51.958;5.426;2024-01-16T11:00:43;5.55;;;2.83;;
55762;SDS011;42162;51.958;5.426;2024-01-16T11:03:25;10.73;;;3.53;;
55762;SDS011;42162;51.958;5.426;2024-01-16T11:06:01;6.30;;;2.83;;
55762;SDS011;42162;51.958;5.426;2024-01-16T11:08:34;4.85;;;3.05;;
55762;SDS011;42162;51.958;5.426;2024-01-16T11:11:04;7.03;;;3.08;;
55762;SDS011;42162;51.958;5.426;2024-01-16T11:13:32;10.07;;;3.10;;
55762;SDS011;42162;51.958;5.426;2024-01-16T11:16:02;12.98;;;3.50;;
55762;SDS011;42162;51.958;5.426;2024-01-16T11:21:07;8.48;;;2.95;;
55762;SDS011;42162;51.958;5.426;2024-01-16T11:23:41;7.07;;;2.80;;
55762;SDS011;42162;51.958;5.426;2024-01-16T11:26:26;5.72;;;3.10;;
55762;SDS011;42162;51.958;5.426;2024-01-16T11:28:54;8.25;;;3.05;;
55762;SDS011;42162;51.958;5.426;2024-01-16T11:34:01;6.30;;;2.80;;
55762;SDS011;42162;51.958;5.426;2024-01-16T11:36:49;5.10;;;2.80;;
55762;SDS011;42162;51.958;5.426;2024-01-16T11:39:23;8.27;;;2.90;;
55762;SDS011;42162;51.958;5.426;2024-01-16T11:47:17;5.60;;;2.95;;
55762;SDS011;42162;51.958;5.426;2024-01-16T11:49:52;7.88;;;3.25;;
55762;SDS011;42162;51.958;5.426;2024-01-16T11:52:39;4.47;;;3.10;;
55762;SDS011;42162;51.958;5.426;2024-01-16T11:55:28;8.65;;;3.22;;
55762;SDS011;42162;51.958;5.426;2024-01-16T12:00:25;13.52;;;3.58;;
55762;SDS011;42162;51.958;5.426;2024-01-16T12:03:01;4.90;;;2.95;;
55762;SDS011;42162;51.958;5.426;2024-01-16T12:05:30;9.23;;;3.85;;
55762;SDS011;42162;51.958;5.426;2024-01-16T12:07:57;5.82;;;2.95;;
55762;SDS011;42162;51.958;5.426;2024-01-16T12:10:25;10.98;;;4.07;;
55762;SDS011;42162;51.958;5.426;2024-01-16T12:12:56;7.13;;;3.45;;
55762;SDS011;42162;51.958;5.426;2024-01-16T12:15:30;12.60;;;3.90;;
55762;SDS011;42162;51.958;5.426;2024-01-16T12:17:58;5.20;;;2.90;;
55762;SDS011;42162;51.958;5.426;2024-01-16T12:20:28;5.25;;;2.88;;
55762;SDS011;42162;51.958;5.426;2024-01-16T12:23:00;6.53;;;3.83;;
55762;SDS011;42162;51.958;5.426;2024-01-16T12:25:28;5.07;;;3.38;;
55762;SDS011;42162;51.958;5.426;2024-01-16T12:28:16;14.63;;;3.63;;
55762;SDS011;42162;51.958;5.426;2024-01-16T12:30:50;6.25;;;3.45;;
55762;SDS011;42162;51.958;5.426;2024-01-16T12:33:21;8.95;;;3.30;;
55762;SDS011;42162;51.958;5.426;2024-01-16T12:35:49;7.18;;;3.03;;
55762;SDS011;42162;51.958;5.426;2024-01-16T12:38:17;9.20;;;3.65;;
55762;SDS011;42162;51.958;5.426;2024-01-16T12:40:46;10.02;;;4.38;;
55762;SDS011;42162;51.958;5.426;2024-01-16T12:43:16;6.57;;;3.10;;
55762;SDS011;42162;51.958;5.426;2024-01-16T12:45:45;7.65;;;3.42;;
55762;SDS011;42162;51.958;5.426;2024-01-16T12:48:12;10.13;;;3.13;;
55762;SDS011;42162;51.958;5.426;2024-01-16T12:50:40;8.20;;;3.60;;
55762;SDS011;42162;51.958;5.426;2024-01-16T12:53:08;5.72;;;3.35;;
55762;SDS011;42162;51.958;5.426;2024-01-16T12:55:37;3.67;;;2.88;;
55762;SDS011;42162;51.958;5.426;2024-01-16T13:00:48;5.38;;;3.20;;
55762;SDS011;42162;51.958;5.426;2024-01-16T13:03:18;7.43;;;2.80;;
55762;SDS011;42162;51.958;5.426;2024-01-16T13:05:56;5.00;;;3.00;;
55762;SDS011;42162;51.958;5.426;2024-01-16T13:08:25;5.25;;;2.85;;
55762;SDS011;42162;51.958;5.426;2024-01-16T13:11:03;10.45;;;2.65;;
55762;SDS011;42162;51.958;5.426;2024-01-16T13:13:31;7.00;;;3.13;;
55762;SDS011;42162;51.958;5.426;2024-01-16T13:16:00;7.50;;;2.97;;
55762;SDS011;42162;51.958;5.426;2024-01-16T13:18:28;8.50;;;3.15;;
55762;SDS011;42162;51.958;5.426;2024-01-16T13:20:57;8.07;;;2.38;;
55762;SDS011;42162;51.958;5.426;2024-01-16T13:23:26;16.48;;;3.65;;
55762;SDS011;42162;51.958;5.426;2024-01-16T13:25:54;9.50;;;2.58;;
55762;SDS011;42162;51.958;5.426;2024-01-16T13:28:23;10.00;;;3.55;;
55762;SDS011;42162;51.958;5.426;2024-01-16T13:30:52;6.35;;;3.55;;
55762;SDS011;42162;51.958;5.426;2024-01-16T13:33:20;5.20;;;3.20;;
55762;SDS011;42162;51.958;5.426;2024-01-16T13:35:49;6.38;;;2.92;;
55762;SDS011;42162;51.958;5.426;2024-01-16T13:38:17;11.07;;;4.07;;
55762;SDS011;42162;51.958;5.426;2024-01-16T13:40:46;5.38;;;3.08;;
55762;SDS011;42162;51.958;5.426;2024-01-16T13:43:17;6.65;;;3.42;;
55762;SDS011;42162;51.958;5.426;2024-01-16T13:45:44;11.65;;;3.90;;
55762;SDS011;42162;51.958;5.426;2024-01-16T13:48:13;6.65;;;3.35;;
55762;SDS011;42162;51.958;5.426;2024-01-16T13:50:41;6.63;;;2.83;;
55762;SDS011;42162;51.958;5.426;2024-01-16T13:53:08;6.63;;;3.08;;
55762;SDS011;42162;51.958;5.426;2024-01-16T13:55:35;11.10;;;3.15;;
55762;SDS011;42162;51.958;5.426;2024-01-16T13:58:03;5.53;;;2.67;;
55762;SDS011;42162;51.958;5.426;2024-01-16T14:00:30;5.22;;;2.80;;
55762;SDS011;42162;51.958;5.426;2024-01-16T14:02:58;7.32;;;3.00;;
55762;SDS011;42162;51.958;5.426;2024-01-16T14:05:26;7.70;;;2.75;;
55762;SDS011;42162;51.958;5.426;2024-01-16T14:07:54;9.88;;;2.97;;
55762;SDS011;42162;51.958;5.426;2024-01-16T14:10:21;7.15;;;2.92;;
55762;SDS011;42162;51.958;5.426;2024-01-16T14:12:51;7.82;;;2.47;;
55762;SDS011;42162;51.958;5.426;2024-01-16T14:15:19;4.50;;;2.75;;
55762;SDS011;42162;51.958;5.426;2024-01-16T14:17:53;8.48;;;3.40;;
55762;SDS011;42162;51.958;5.426;2024-01-16T14:22:54;7.60;;;3.53;;
55762;SDS011;42162;51.958;5.426;2024-01-16T14:25:21;9.20;;;4.20;;
55762;SDS011;42162;51.958;5.426;2024-01-16T14:30:24;7.47;;;2.80;;
55762;SDS011;42162;51.958;5.426;2024-01-16T14:32:53;8.13;;;3.38;;
55762;SDS011;42162;51.958;5.426;2024-01-16T14:35:20;5.93;;;2.72;;
55762;SDS011;42162;51.958;5.426;2024-01-16T14:37:47;7.07;;;2.97;;
55762;SDS011;42162;51.958;5.426;2024-01-16T14:40:15;8.15;;;2.88;;
55762;SDS011;42162;51.958;5.426;2024-01-16T14:42:52;5.60;;;3.15;;
55762;SDS011;42162;51.958;5.426;2024-01-16T14:45:20;7.47;;;3.10;;
55762;SDS011;42162;51.958;5.426;2024-01-16T14:47:48;5.95;;;2.78;;
55762;SDS011;42162;51.958;5.426;2024-01-16T14:50:17;6.20;;;2.90;;
55762;SDS011;42162;51.958;5.426;2024-01-16T14:52:45;5.75;;;2.65;;
55762;SDS011;42162;51.958;5.426;2024-01-16T14:55:16;7.88;;;3.17;;
55762;SDS011;42162;51.958;5.426;2024-01-16T14:57:44;10.00;;;3.10;;
55762;SDS011;42162;51.958;5.426;2024-01-16T15:00:14;6.07;;;3.38;;
55762;SDS011;42162;51.958;5.426;2024-01-16T15:02:50;7.05;;;2.75;;
55762;SDS011;42162;51.958;5.426;2024-01-16T15:05:17;7.22;;;2.80;;
55762;SDS011;42162;51.958;5.426;2024-01-16T15:07:47;8.18;;;2.65;;
55762;SDS011;42162;51.958;5.426;2024-01-16T15:10:14;4.82;;;2.67;;
55762;SDS011;42162;51.958;5.426;2024-01-16T15:12:44;5.13;;;2.95;;
55762;SDS011;42162;51.958;5.426;2024-01-16T15:15:13;6.82;;;3.40;;
55762;SDS011;42162;51.958;5.426;2024-01-16T15:17:43;7.65;;;3.22;;
55762;SDS011;42162;51.958;5.426;2024-01-16T15:20:13;7.95;;;2.95;;